Latest Coastal Weather Observations for Ulladulla

IDN60701

Issued at 4:55 pm EST Wednesday 23 April 2014 (issued every 10 minutes, with the page automatically refreshed every 10 minutes)

About coastal observations | Map of coastal stations | Coastal observations for NSW | Marine services | Other Formats
Station Details ID: 069138 Name: ULLADULLA AWS Lat: -35.36 Lon: 150.48 Height: 35.7 m
Data from the previous 72 hours. | See also: Recent months at Ulladulla
Date/Time
EST
Temp

°C
Wind Pressure Rain
since 9am
mm
Weather Cloud Vis
km
Sea
Height
m
Swell
Dir
 
Speed
knots
Gust
knots
hPa Trend Height
m
Period
s
Dir
23/04:30pm 22.6 N 6 10 1013.1 - 0.0 - - - - - - -
23/04:00pm 22.9 N 3 7 1013.0 - 0.0 - - - - - - -
23/03:30pm 22.3 NNE 7 12 1013.3 - 0.0 - - - - - - -
23/03:00pm 22.3 NNE 7 10 1013.5 - 0.0 - - - - - - -
23/02:30pm 22.3 NNE 7 9 1013.8 - 0.0 - - - - - - -
23/02:00pm 21.6 NNE 6 8 1014.0 - 0.0 - - - - - - -
23/01:30pm 21.9 NNE 4 5 1014.3 - 0.0 - - - - - - -
23/01:00pm 22.0 NE 4 6 1014.6 - 0.0 - - - - - - -
23/12:30pm 22.8 SE 3 5 1015.2 - 0.0 - - - - - - -
23/12:00pm 22.4 SSE 4 6 1015.7 - 0.0 - - - - - - -
23/11:30am 21.9 SSE 4 6 1016.3 - 0.0 - - - - - - -
23/11:00am 22.5 S 5 7 1016.7 - 0.0 - - - - - - -
23/10:30am 22.4 SSW 7 10 1017.1 - 0.0 - - - - - - -
23/10:00am 22.2 SSW 6 10 1017.0 - 0.0 - - - - - - -
23/09:30am 22.5 SW 4 7 1016.9 - 0.0 - - - - - - -
23/09:00am 21.7 WSW 4 7 1016.9 - 0.0 - - - - - - -
23/08:30am 21.0 W 5 8 1017.1 - 0.0 - - - - - - -
23/08:00am 18.3 W 5 10 1017.2 - 0.0 - - - - - - -
23/07:30am 18.1 WSW 6 11 1016.9 - 0.0 - - - - - - -
23/07:00am 17.2 W 6 9 1016.3 - 0.0 - - - - - - -
23/06:30am 16.6 W 5 7 1016.1 - 0.0 - - - - - - -
23/06:00am 16.5 WNW 4 6 1016.1 - 0.0 - - - - - - -
23/05:30am 16.4 W 5 7 1016.3 - 0.0 - - - - - - -
23/05:00am 16.8 W 5 8 1016.2 - 0.0 - - - - - - -
23/04:30am 16.0 W 5 8 1016.2 - 0.0 - - - - - - -
23/04:00am 16.0 W 5 8 1016.1 - 0.0 - - - - - - -
23/03:30am 16.2 W 5 7 1015.8 - 0.0 - - - - - - -
23/03:00am 15.7 W 4 6 1015.5 - 0.0 - - - - - - -
23/02:30am 15.5 SW 3 5 1015.6 - 0.0 - - - - - - -
23/02:00am 16.0 WSW 3 5 1015.7 - 0.0 - - - - - - -
23/01:30am 15.9 W 3 5 1015.9 - 0.0 - - - - - - -
23/01:00am 16.4 W 3 6 1015.7 - 0.0 - - - - - - -
23/12:30am 16.7 W 3 5 1015.9 - 0.0 - - - - - - -
23/12:00am 16.4 WNW 3 4 1015.9 - 0.0 - - - - - - -
 
Date/Time
EST
Temp

°C
Wind Pressure Rain
since 9am
mm
Weather Cloud Vis
km
Sea
Height
m
Swell
Dir
 
Speed
knots
Gust
knots
hPa Trend Height
m
Period
s
Dir
22/11:30pm 16.8 WNW 2 4 1016.0 - 0.0 - - - - - - -
22/11:00pm 16.9 WSW 4 5 1015.9 - 0.0 - - - - - - -
22/10:30pm 16.9 WSW 4 7 1016.0 - 0.0 - - - - - - -
22/10:00pm 17.7 SW 3 5 1015.9 - 0.0 - - - - - - -
22/09:30pm 18.3 W 4 7 1015.9 - 0.0 - - - - - - -
22/09:00pm 18.4 WSW 5 9 1015.7 - 0.0 - - - - - - -
22/08:30pm 18.7 WSW 3 7 1015.8 - 0.0 - - - - - - -
22/08:00pm 19.5 WSW 5 9 1015.3 - 0.0 - - - - - - -
22/07:30pm 20.0 SW 5 7 1015.4 - 0.0 - - - - - - -
22/07:00pm 19.7 NNW 3 6 1015.0 - 0.0 - - - - - - -
22/06:30pm 19.9 W 3 6 1014.6 - 0.0 - - - - - - -
22/06:00pm 20.9 W 2 4 1014.2 - 0.0 - - - - - - -
22/05:30pm 21.8 WNW 3 7 1013.9 - 0.0 - - - - - - -
22/05:00pm 20.7 NW 2 4 1013.4 - 0.0 - - - - - - -
22/04:30pm 21.8 N 2 4 1013.3 - 0.0 - - - - - - -
22/04:00pm 23.7 N 1 3 1013.2 - 0.0 - - - - - - -
22/03:30pm 23.5 NNE 2 2 1013.3 - 0.0 - - - - - - -
22/03:00pm 23.9 NNE 3 4 1013.2 - 0.0 - - - - - - -
22/02:30pm 24.5 NNE 2 2 1013.3 - 0.0 - - - - - - -
22/02:00pm 24.1 NNE 4 5 1013.3 - 0.0 - - - - - - -
22/01:30pm 23.8 NNE 5 7 1013.6 - 0.0 - - - - - - -
22/01:00pm 22.7 NNE 7 8 1013.9 - 0.0 - - - - - - -
22/12:30pm 22.7 NNE 7 9 1014.5 - 0.0 - - - - - - -
22/12:00pm 22.8 NNE 6 8 1014.7 - 0.0 - - - - - - -
22/11:30am 22.8 NNE 4 6 1015.2 - 0.0 - - - - - - -
22/11:00am 21.7 NNE 4 6 1015.6 - 0.0 - - - - - - -
22/10:30am 21.0 NNE 4 5 1015.9 - 0.0 - - - - - - -
22/10:00am 20.1 NNE 3 5 1016.1 - 0.0 - - - - - - -
22/09:30am 19.2 N 4 7 1016.4 - 0.0 - - - - - - -
22/09:00am 19.0 N 5 8 1016.4 - 0.0 - - - - - - -
22/08:30am 18.2 N 4 6 1016.6 - 0.0 - - - - - - -
22/08:00am 17.4 N 5 7 1016.6 - 0.0 - - - - - - -
22/07:30am 16.7 NNE 3 5 1016.5 - 0.0 - - - - - - -
22/07:00am 15.4 NNE 3 4 1016.2 - 0.0 - - - - - - -
22/06:30am 13.3 N 3 4 1016.5 - 0.0 - - - - - - -
22/06:00am 12.9 N 3 4 1016.4 - 0.0 - - - - - - -
22/05:30am 14.7 N 4 5 1016.6 - 0.0 - - - - - - -
22/05:00am 16.8 N 6 9 1016.5 - 0.0 - - - - - - -
22/04:30am 17.1 N 5 8 1016.7 - 0.0 - - - - - - -
22/04:00am 17.5 N 5 10 1016.6 - 0.0 - - - - - - -
22/03:30am 16.9 N 5 8 1016.8 - 0.0 - - - - - - -
22/03:00am 16.5 N 4 6 1017.0 - 0.0 - - - - - - -
22/02:30am 15.9 N 3 5 1017.4 - 0.0 - - - - - - -
22/02:00am 15.6 N 3 5 1017.7 - 0.0 - - - - - - -
22/01:30am 15.4 N 4 6 1018.0 - 0.0 - - - - - - -
22/01:00am 16.3 NNW 3 5 1018.3 - 0.0 - - - - - - -
22/12:30am 16.6 N 4 6 1018.7 - 0.0 - - - - - - -
22/12:00am 17.3 N 5 7 1018.8 - 0.0 - - - - - - -
 
Date/Time
EST
Temp

°C
Wind Pressure Rain
since 9am
mm
Weather Cloud Vis
km
Sea
Height
m
Swell
Dir
 
Speed
knots
Gust
knots
hPa Trend Height
m
Period
s
Dir
21/11:30pm 16.8 N 3 6 1018.9 - 0.0 - - - - - - -
21/11:00pm 16.9 N 4 7 1019.0 - 0.0 - - - - - - -
21/10:30pm 16.9 N 5 7 1019.3 - 0.0 - - - - - - -
21/10:00pm 16.6 NNW 4 6 1019.5 - 0.0 - - - - - - -
21/09:30pm 16.5 NNW 4 6 1019.7 - 0.0 - - - - - - -
21/09:00pm 16.5 NW 3 4 1019.6 - 0.0 - - - - - - -
21/08:30pm 16.2 NW 4 5 1019.4 - 0.0 - - - - - - -
21/08:00pm 16.6 NW 3 4 1019.4 - 0.0 - - - - - - -
21/07:30pm 17.0 NW 4 5 1019.6 - 0.0 - - - - - - -
21/07:00pm 16.9 NW 4 5 1019.6 - 0.0 - - - - - - -
21/06:30pm 16.9 NW 2 4 1019.5 - 0.0 - - - - - - -
21/06:00pm 17.3 WNW 2 2 1019.3 - 0.0 - - - - - - -
21/05:30pm 18.1 CALM 0 0 1018.9 - 0.0 - - - - - - -
21/05:00pm 18.7 SW 1 3 1018.8 - 0.0 - - - - - - -
21/04:30pm 19.3 SSW 1 2 1018.9 - 0.0 - - - - - - -
21/04:00pm 19.6 SSW 2 4 1018.9 - 0.0 - - - - - - -
21/03:30pm 19.7 S 2 4 1019.1 - 0.0 - - - - - - -
21/03:00pm 20.2 SW 3 5 1019.3 - 0.0 - - - - - - -
21/02:30pm 19.9 S 5 6 1019.3 - 0.0 - - - - - - -
21/02:00pm 19.8 SSW 4 6 1019.2 - 0.0 - - - - - - -
21/01:30pm 19.4 SSW 5 7 1019.4 - 0.0 - - - - - - -
21/01:00pm 19.2 SSW 7 10 1019.6 - 0.0 - - - - - - -
21/12:30pm 19.3 S 6 9 1020.0 - 0.0 - - - - - - -
21/12:00pm 19.9 S 6 8 1020.2 - 0.0 - - - - - - -
21/11:30am 19.9 S 5 9 1020.5 - 0.0 - - - - - - -
21/11:00am 19.2 SSW 8 12 1020.8 - 0.0 - - - - - - -
21/10:30am 19.0 SSW 7 12 1021.0 - 0.0 - - - - - - -
21/10:00am 19.5 SSW 7 12 1021.1 - 0.0 - - - - - - -
21/09:30am 19.3 SSW 5 8 1021.0 - 0.0 - - - - - - -
21/09:00am 18.3 WSW 6 9 1021.0 - 0.0 - - - - - - -
21/08:30am 17.1 SW 7 11 1020.8 - 0.0 - - - - - - -
21/08:00am 16.2 WSW 6 11 1020.5 - 0.0 - - - - - - -
21/07:30am 14.7 WSW 7 10 1020.2 - 0.0 - - - - - - -
21/07:00am 14.0 WSW 6 10 1019.9 - 0.0 - - - - - - -
21/06:30am 13.9 WSW 6 11 1019.5 - 0.0 - - - - - - -
21/06:00am 14.2 WSW 7 11 1019.2 - 0.0 - - - - - - -
21/05:30am 14.2 WSW 7 12 1018.9 - 0.0 - - - - - - -
21/05:00am 14.3 SW 9 14 1018.6 - 0.0 - - - - - - -
21/04:30am 14.2 SW 8 12 1018.5 - 0.0 - - - - - - -
21/04:00am 14.1 WSW 8 12 1018.0 - 0.0 - - - - - - -
21/03:30am 14.1 WSW 9 12 1018.0 - 0.0 - - - - - - -
21/03:00am 13.9 WSW 8 13 1017.9 - 0.0 - - - - - - -
21/02:30am 13.9 WSW 7 11 1018.0 - 0.0 - - - - - - -
21/02:00am 14.0 WSW 7 13 1018.1 - 0.0 - - - - - - -
21/01:30am 13.8 W 6 11 1018.2 - 0.0 - - - - - - -
21/01:00am 13.7 W 6 10 1018.3 - 0.0 - - - - - - -
21/12:30am 13.6 W 5 8 1018.2 - 0.0 - - - - - - -
21/12:00am 13.9 W 5 7 1018.3 - 0.0 - - - - - - -
 
Date/Time
EST
Temp

°C
Wind Pressure Rain
since 9am
mm
Weather Cloud Vis
km
Sea
Height
m
Swell
Dir
 
Speed
knots
Gust
knots
hPa Trend Height
m
Period
s
Dir
20/11:30pm 13.9 WNW 4 7 1018.2 - 0.0 - - - - - - -
20/11:00pm 14.0 W 4 7 1018.3 - 0.0 - - - - - - -
20/10:30pm 14.4 W 6 10 1018.4 - 0.0 - - - - - - -
20/10:00pm 14.5 W 5 8 1018.5 - 0.0 - - - - - - -
20/09:30pm 14.8 WNW 4 7 1018.5 - 0.0 - - - - - - -
20/09:00pm 15.0 W 5 10 1018.2 - 0.0 - - - - - - -
20/08:30pm 15.5 W 5 8 1017.9 - 0.0 - - - - - - -
20/08:00pm 15.7 W 5 9 1017.8 - 0.0 - - - - - - -
20/07:30pm 16.1 WSW 6 10 1017.3 - 0.0 - - - - - - -
20/07:00pm 16.1 W 4 7 1016.8 - 0.0 - - - - - - -
20/06:30pm 16.6 W 4 7 1016.5 - 0.0 - - - - - - -
20/06:00pm 17.4 W 4 6 1015.8 - 0.0 - - - - - - -
20/05:30pm 19.1 W 2 5 1015.3 - 0.0 - - - - - - -
20/05:00pm 20.5 WSW 2 3 1014.7 - 0.0 - - - - - - -

Other Formats:

Comma delimited format used in spreadsheet applications
http://www.bom.gov.au/fwo/IDN60701/IDN60701.94938.axf

JavaScript Object Notation format (JSON) in row-major order
http://www.bom.gov.au/fwo/IDN60701/IDN60701.94938.json